createdAt,value
2018-12-24T00:01:03.569Z,67.89
2018-12-24T00:03:33.303Z,68.22
2018-12-24T00:06:04.847Z,67.15
2018-12-24T00:08:35.117Z,66.94
2018-12-24T00:11:05.283Z,67.87
2018-12-24T00:13:34.889Z,66.34
2018-12-24T00:16:04.663Z,67.80
2018-12-24T00:18:34.233Z,67.32
2018-12-24T00:21:04.113Z,67.16
2018-12-24T00:23:33.688Z,66.42
2018-12-24T00:26:04.570Z,66.99
2018-12-24T00:28:34.338Z,66.44
2018-12-24T00:31:04.018Z,67.85
2018-12-24T00:33:34.682Z,68.59
2018-12-24T00:36:04.256Z,68.09
2018-12-24T00:38:34.613Z,66.61
2018-12-24T00:41:04.586Z,64.69
2018-12-24T00:43:35.060Z,64.01
2018-12-24T00:46:04.832Z,64.17
2018-12-24T00:48:34.862Z,64.18
2018-12-24T00:51:05.688Z,64.12
2018-12-24T00:53:35.687Z,64.52
2018-12-24T00:56:05.633Z,62.26
2018-12-24T00:58:35.698Z,63.03
2018-12-24T01:01:07.211Z,63.90
2018-12-24T01:03:37.355Z,63.41
2018-12-24T01:06:07.640Z,64.67
2018-12-24T01:08:37.438Z,63.23
2018-12-24T01:11:07.691Z,64.15
2018-12-24T01:13:37.510Z,60.59
2018-12-24T01:16:07.218Z,59.74
2018-12-24T01:18:37.055Z,58.10
2018-12-24T01:21:06.795Z,58.59
2018-12-24T01:23:37.103Z,58.19
2018-12-24T01:26:07.451Z,57.16
2018-12-24T01:28:37.795Z,61.81
2018-12-24T01:31:08.438Z,63.19
2018-12-24T01:33:38.622Z,63.68
2018-12-24T01:36:08.908Z,63.52
2018-12-24T01:38:38.781Z,63.62
2018-12-24T01:41:08.323Z,61.33
2018-12-24T01:43:38.184Z,64.34
2018-12-24T01:46:07.396Z,66.07
2018-12-24T01:48:37.500Z,60.60
2018-12-24T01:51:08.019Z,59.16
2018-12-24T01:53:37.896Z,56.80
2018-12-24T01:56:07.960Z,58.53
2018-12-24T01:58:38.346Z,55.21
2018-12-24T02:01:08.758Z,54.36
2018-12-24T02:03:38.455Z,53.71
2018-12-24T02:06:08.030Z,51.83
2018-12-24T02:08:38.068Z,50.38
2018-12-24T02:11:08.198Z,51.59
2018-12-24T02:13:37.938Z,49.95
2018-12-24T02:16:07.438Z,50.96
2018-12-24T02:18:37.147Z,50.36
2018-12-24T02:21:06.920Z,50.20
2018-12-24T02:23:36.924Z,50.76
2018-12-24T02:26:07.467Z,50.68
2018-12-24T02:28:37.060Z,52.56
2018-12-24T02:31:11.129Z,54.63
2018-12-24T02:33:41.092Z,55.75
2018-12-24T02:36:10.994Z,55.93
2018-12-24T02:38:41.296Z,55.48
2018-12-24T02:41:11.289Z,56.73
2018-12-24T02:43:40.759Z,55.25
2018-12-24T02:46:10.470Z,55.30
2018-12-24T02:48:39.924Z,55.55
2018-12-24T02:51:09.845Z,56.78
2018-12-24T02:53:41.756Z,57.56
2018-12-24T02:56:11.419Z,58.11
2018-12-24T02:58:41.665Z,58.14
2018-12-24T03:01:11.392Z,60.54
2018-12-24T03:03:41.426Z,61.14
2018-12-24T03:06:10.944Z,64.25
2018-12-24T03:08:40.495Z,67.13
2018-12-24T03:11:10.474Z,69.78
2018-12-24T03:13:40.356Z,73.07
2018-12-24T03:16:10.504Z,73.54
2018-12-24T03:18:40.243Z,74.02
2018-12-24T03:21:09.691Z,73.38
2018-12-24T03:23:39.376Z,71.24
2018-12-24T03:26:09.386Z,66.96
2018-12-24T03:28:39.124Z,66.83
2018-12-24T03:31:09.460Z,63.88
2018-12-24T03:33:39.148Z,65.87
2018-12-24T03:36:09.587Z,66.37
2018-12-24T03:38:39.626Z,68.19
2018-12-24T03:41:09.195Z,69.46
2018-12-24T03:43:38.768Z,68.90
2018-12-24T03:46:08.827Z,69.03
2018-12-24T03:48:38.138Z,68.46
2018-12-24T03:51:07.782Z,67.64
2018-12-24T03:53:37.674Z,66.91
2018-12-24T03:56:08.332Z,65.28
2018-12-24T03:58:38.081Z,63.89
2018-12-24T04:01:07.920Z,64.07
2018-12-24T04:03:37.998Z,63.02
2018-12-24T04:06:09.174Z,63.00
2018-12-24T04:08:38.870Z,62.20
2018-12-24T04:11:09.843Z,65.42
2018-12-24T04:13:39.844Z,63.11
2018-12-24T04:16:09.378Z,62.71
2018-12-24T04:18:41.625Z,62.05
2018-12-24T04:21:11.264Z,58.99
2018-12-24T04:23:41.028Z,58.78
2018-12-24T04:26:10.493Z,59.83
2018-12-24T04:28:39.894Z,58.11
2018-12-24T04:31:09.444Z,59.84
2018-12-24T04:33:40.657Z,59.04
2018-12-24T04:36:11.159Z,59.61
2018-12-24T04:38:40.729Z,59.56
2018-12-24T04:41:10.773Z,59.51
2018-12-24T04:43:40.529Z,59.29
2018-12-24T04:46:10.420Z,60.15
2018-12-24T04:48:45.298Z,59.74
2018-12-24T04:51:15.046Z,58.01
2018-12-24T04:53:44.406Z,59.67
2018-12-24T04:56:14.030Z,59.94
2018-12-24T04:58:43.401Z,62.13
2018-12-24T05:01:13.161Z,61.81
2018-12-24T05:03:44.689Z,64.30
2018-12-24T05:06:14.658Z,62.51
2018-12-24T05:08:44.912Z,64.12
2018-12-24T05:11:14.861Z,67.35
2018-12-24T05:13:44.368Z,65.63
2018-12-24T05:16:14.000Z,68.84
2018-12-24T05:18:44.327Z,69.26
2018-12-24T05:21:14.116Z,71.87
2018-12-24T05:23:43.657Z,73.42
2018-12-24T05:26:13.772Z,71.79
2018-12-24T05:28:43.655Z,70.50
2018-12-24T05:31:13.525Z,70.02
2018-12-24T05:33:43.316Z,68.78
2018-12-24T05:36:12.999Z,65.84
2018-12-24T05:38:43.029Z,67.06
2018-12-24T05:41:13.125Z,66.55
2018-12-24T05:43:49.391Z,67.14
2018-12-24T05:46:13.110Z,63.67
2018-12-24T05:48:42.437Z,65.57
2018-12-24T05:51:12.196Z,69.75
2018-12-24T05:53:42.085Z,73.65
2018-12-24T05:56:11.995Z,74.95
2018-12-24T05:58:43.231Z,72.64
2018-12-24T06:01:13.009Z,70.61
2018-12-24T06:03:42.704Z,71.94
2018-12-24T06:06:12.463Z,74.01
2018-12-24T06:08:42.263Z,77.72
2018-12-24T06:11:12.336Z,81.25
2018-12-24T06:13:42.076Z,80.41
2018-12-24T06:16:11.775Z,82.50
2018-12-24T06:18:41.361Z,85.22
2018-12-24T06:21:11.028Z,88.77
2018-12-24T06:23:40.770Z,88.09
2018-12-24T06:26:10.242Z,88.68
2018-12-24T06:28:39.685Z,82.81
2018-12-24T06:31:09.836Z,85.92
2018-12-24T06:33:39.934Z,82.62
2018-12-24T06:36:10.429Z,86.39
2018-12-24T06:38:40.313Z,83.47
2018-12-24T06:41:10.604Z,86.04
2018-12-24T06:43:40.675Z,84.68
2018-12-24T06:46:10.881Z,84.20
2018-12-24T06:48:42.148Z,86.03
2018-12-24T06:51:11.574Z,85.83
2018-12-24T06:53:42.133Z,86.59
2018-12-24T06:58:41.336Z,82.47
2018-12-24T07:01:11.115Z,81.27
2018-12-24T07:03:40.913Z,81.30
2018-12-24T07:06:10.438Z,76.65
2018-12-24T07:08:40.572Z,77.50
2018-12-24T07:11:10.552Z,82.58
2018-12-24T07:13:43.552Z,82.78
2018-12-24T07:16:13.692Z,85.24
2018-12-24T07:18:43.452Z,86.17
2018-12-24T07:21:13.291Z,88.61
2018-12-24T07:23:43.421Z,85.39
2018-12-24T07:26:13.897Z,88.64
2018-12-24T07:28:43.677Z,89.97
2018-12-24T07:31:14.227Z,86.19
2018-12-24T07:33:44.424Z,82.80
2018-12-24T07:36:14.260Z,84.75
2018-12-24T07:38:44.825Z,85.76
2018-12-24T07:41:15.832Z,84.30
2018-12-24T07:43:47.000Z,79.65
2018-12-24T07:46:17.534Z,78.67
2018-12-24T07:48:48.156Z,74.13
2018-12-24T07:51:18.418Z,80.41
2018-12-24T07:53:48.508Z,81.03
2018-12-24T07:56:20.945Z,76.63
2018-12-24T07:58:50.592Z,73.08
2018-12-24T08:01:20.824Z,69.69
2018-12-24T08:03:51.724Z,68.38
2018-12-24T08:06:22.150Z,64.31
2018-12-24T08:08:52.764Z,69.94
2018-12-24T08:11:23.105Z,66.64
2018-12-24T08:13:53.452Z,65.87
2018-12-24T08:16:23.402Z,64.02
2018-12-24T08:18:52.959Z,63.92
2018-12-24T08:21:22.985Z,64.73
2018-12-24T08:23:52.835Z,62.98
2018-12-24T08:26:22.265Z,61.40
2018-12-24T08:28:52.107Z,61.41
2018-12-24T08:31:22.861Z,57.57
2018-12-24T08:33:53.407Z,59.57
2018-12-24T08:36:23.807Z,58.86
2018-12-24T08:38:55.137Z,57.26
2018-12-24T08:41:24.326Z,54.46
2018-12-24T08:43:54.614Z,53.06
2018-12-24T08:46:24.954Z,55.13
2018-12-24T08:48:54.858Z,56.74
2018-12-24T08:51:26.019Z,57.27
2018-12-24T08:53:56.061Z,57.43
2018-12-24T08:56:26.391Z,57.44
2018-12-24T08:58:56.886Z,59.32
2018-12-24T09:01:26.508Z,56.97
2018-12-24T09:03:58.763Z,57.16
2018-12-24T09:06:29.560Z,62.37
2018-12-24T09:09:00.262Z,61.07
2018-12-24T09:11:29.886Z,61.59
2018-12-24T09:13:59.871Z,61.86
2018-12-24T09:16:30.409Z,61.28
2018-12-24T09:19:01.078Z,63.38
2018-12-24T09:21:30.913Z,66.84
2018-12-24T09:24:01.513Z,65.71
2018-12-24T09:26:31.873Z,66.32
2018-12-24T09:29:02.914Z,64.88
2018-12-24T09:31:33.969Z,61.64
2018-12-24T09:34:05.528Z,61.75
2018-12-24T09:36:35.552Z,64.04
2018-12-24T09:39:08.122Z,61.46
2018-12-24T09:41:37.646Z,60.88
2018-12-24T09:44:08.951Z,59.55
2018-12-24T09:46:40.873Z,58.28
2018-12-24T09:49:11.157Z,58.85
2018-12-24T09:51:41.798Z,59.00
2018-12-24T09:54:12.701Z,59.17
2018-12-24T09:56:43.391Z,59.60
2018-12-24T09:59:13.938Z,57.52
2018-12-24T10:01:43.862Z,58.80
2018-12-24T10:04:25.707Z,57.25
2018-12-24T10:06:55.646Z,56.49
2018-12-24T10:09:26.801Z,54.87
2018-12-24T10:11:56.787Z,57.80
2018-12-24T10:14:26.786Z,56.31
2018-12-24T10:16:57.400Z,57.31
2018-12-24T10:19:26.942Z,58.88
2018-12-24T10:21:57.876Z,59.90
2018-12-24T10:24:28.122Z,58.19
2018-12-24T10:26:58.044Z,59.20
2018-12-24T10:29:33.189Z,61.35
2018-12-24T10:32:03.093Z,62.95
2018-12-24T10:34:33.606Z,62.90
2018-12-24T10:37:03.433Z,64.03
2018-12-24T10:39:33.413Z,63.89
2018-12-24T10:42:03.800Z,68.93
2018-12-24T10:44:33.599Z,68.05
2018-12-24T10:47:03.601Z,70.61
2018-12-24T10:49:34.108Z,70.51
2018-12-24T10:52:04.530Z,65.45
2018-12-24T10:54:34.513Z,64.83
2018-12-24T10:57:05.420Z,63.86
2018-12-24T10:59:35.638Z,63.22
2018-12-24T11:02:06.058Z,61.31
2018-12-24T11:04:36.276Z,63.53
2018-12-24T11:07:06.464Z,64.10
2018-12-24T11:09:38.456Z,63.26
2018-12-24T11:12:09.617Z,64.32
2018-12-24T11:14:39.779Z,67.34
2018-12-24T11:17:09.379Z,68.56
2018-12-24T11:19:40.010Z,66.25
2018-12-24T11:22:09.799Z,69.56
2018-12-24T11:24:40.413Z,69.64
2018-12-24T11:27:10.394Z,71.59
2018-12-24T11:29:41.674Z,71.12
2018-12-24T11:32:12.314Z,64.61
2018-12-24T11:34:43.305Z,84.26
2018-12-24T11:37:13.093Z,71.45
2018-12-24T11:39:43.178Z,68.65
2018-12-24T11:42:13.663Z,70.40
2018-12-24T11:44:43.841Z,67.45
2018-12-24T11:47:13.518Z,68.02
2018-12-24T11:49:43.777Z,68.33
2018-12-24T11:52:15.012Z,66.09
2018-12-24T11:54:44.827Z,68.59
2018-12-24T11:57:16.731Z,75.49
2018-12-24T11:59:46.493Z,68.18
2018-12-24T12:02:17.002Z,65.00
2018-12-24T12:04:48.168Z,64.79
2018-12-24T12:07:18.529Z,69.18
2018-12-24T12:09:48.901Z,66.08
2018-12-24T12:12:18.817Z,70.04
2018-12-24T12:14:48.902Z,69.68
2018-12-24T12:17:19.354Z,71.55
2018-12-24T12:19:49.040Z,67.77
2018-12-24T12:22:21.466Z,68.50
2018-12-24T12:24:49.987Z,66.17
2018-12-24T12:27:20.126Z,62.77
2018-12-24T12:29:49.775Z,66.52
2018-12-24T12:32:19.699Z,68.73
2018-12-24T12:34:50.082Z,64.25
2018-12-24T12:37:19.612Z,67.38
2018-12-24T12:39:49.892Z,68.90
2018-12-24T12:42:19.732Z,70.34
2018-12-24T12:44:49.589Z,69.37
2018-12-24T12:47:20.921Z,68.82
2018-12-24T12:49:51.421Z,68.72
2018-12-24T12:52:21.564Z,65.17
2018-12-24T12:54:51.421Z,67.13
2018-12-24T12:57:22.191Z,67.35
2018-12-24T12:59:51.903Z,65.14
2018-12-24T13:02:23.774Z,62.52
2018-12-24T13:04:54.525Z,64.32
2018-12-24T13:07:25.561Z,64.93
2018-12-24T13:09:55.718Z,66.79
2018-12-24T13:12:26.120Z,68.86
2018-12-24T13:14:55.836Z,71.61
2018-12-24T13:17:25.929Z,73.84
2018-12-24T13:19:56.031Z,74.74
2018-12-24T13:22:26.353Z,75.20
2018-12-24T13:24:56.061Z,74.67
2018-12-24T13:27:26.596Z,76.21
2018-12-24T13:29:56.264Z,75.85
2018-12-24T13:32:28.040Z,69.05
2018-12-24T13:34:57.912Z,68.85
2018-12-24T13:37:29.206Z,72.24
2018-12-24T13:39:58.766Z,74.01
2018-12-24T13:42:29.099Z,73.39
2018-12-24T13:44:58.690Z,73.98
2018-12-24T13:47:29.016Z,75.08
2018-12-24T13:49:59.200Z,70.99
2018-12-24T13:52:29.441Z,74.12
2018-12-24T13:54:59.795Z,81.17
2018-12-24T13:57:29.727Z,77.45
2018-12-24T13:59:59.711Z,80.22
2018-12-24T14:02:30.334Z,84.35
2018-12-24T14:05:00.444Z,85.37
2018-12-24T14:07:29.798Z,83.35
2018-12-24T14:09:59.473Z,81.37
2018-12-24T14:12:29.621Z,79.16
2018-12-24T14:14:59.638Z,83.10
2018-12-24T14:17:29.296Z,80.76
2018-12-24T14:19:59.484Z,82.04
2018-12-24T14:22:29.307Z,86.73
2018-12-24T14:24:59.021Z,86.79
2018-12-24T14:27:29.478Z,87.88
2018-12-24T14:29:58.917Z,90.71
2018-12-24T14:32:28.659Z,82.63
2018-12-24T14:35:00.395Z,79.48
2018-12-24T14:37:29.973Z,82.83
2018-12-24T14:39:59.848Z,87.17
2018-12-24T14:42:29.916Z,87.90
2018-12-24T14:44:59.606Z,86.94
2018-12-24T14:47:30.764Z,87.46
2018-12-24T14:50:00.541Z,75.37
2018-12-24T14:52:30.294Z,82.03
2018-12-24T14:55:07.166Z,88.03
2018-12-24T14:57:37.084Z,91.92
2018-12-24T15:00:07.945Z,86.05
2018-12-24T15:02:37.803Z,81.10
2018-12-24T15:05:08.122Z,84.60
2018-12-24T15:07:37.911Z,89.88
2018-12-24T15:10:08.019Z,95.30
2018-12-24T15:12:38.278Z,95.02
2018-12-24T15:15:07.749Z,96.81
2018-12-24T15:17:38.001Z,98.55
2018-12-24T15:20:08.110Z,97.80
2018-12-24T15:22:38.088Z,98.49
2018-12-24T15:25:08.526Z,97.85
2018-12-24T15:27:39.804Z,97.49
2018-12-24T15:30:09.405Z,100.00
2018-12-24T15:32:39.660Z,100.00
2018-12-24T15:35:09.356Z,100.00
2018-12-24T15:37:39.341Z,100.00
2018-12-24T15:40:09.234Z,100.00
2018-12-24T15:42:38.962Z,100.00
2018-12-24T15:45:09.547Z,100.00
2018-12-24T15:47:39.504Z,100.00
2018-12-24T15:50:09.501Z,89.64
2018-12-24T15:52:40.404Z,89.77
2018-12-24T15:55:10.553Z,90.08
2018-12-24T15:57:40.479Z,92.65
2018-12-24T16:00:11.022Z,90.54
2018-12-24T16:02:40.551Z,90.97
2018-12-24T16:05:11.215Z,92.87
2018-12-24T16:07:40.940Z,92.85
2018-12-24T16:10:13.052Z,92.94
2018-12-24T16:12:42.656Z,93.94
2018-12-24T16:15:12.257Z,95.85
2018-12-24T16:17:44.626Z,99.59
2018-12-24T16:20:14.297Z,100.00
2018-12-24T16:22:44.202Z,100.00
2018-12-24T16:25:14.155Z,100.00
2018-12-24T16:27:43.893Z,100.00
2018-12-24T16:30:13.961Z,100.00
2018-12-24T16:32:44.419Z,100.00
2018-12-24T16:35:14.700Z,95.36
2018-12-24T16:37:47.172Z,100.00
2018-12-24T16:40:19.353Z,97.94
2018-12-24T16:42:50.885Z,92.93
2018-12-24T16:45:21.089Z,86.18
2018-12-24T16:47:50.916Z,94.74
2018-12-24T16:50:20.763Z,100.00
2018-12-24T16:52:52.465Z,99.96
2018-12-24T16:55:23.663Z,100.00
2018-12-24T16:57:53.405Z,100.00
2018-12-24T17:00:24.072Z,100.00
2018-12-24T17:02:53.851Z,100.00
2018-12-24T17:05:24.227Z,100.00
2018-12-24T17:07:53.791Z,100.00
2018-12-24T17:10:23.736Z,100.00
2018-12-24T17:12:53.183Z,100.00
2018-12-24T17:15:22.914Z,100.00
2018-12-24T17:17:52.463Z,100.00
2018-12-24T17:20:22.063Z,100.00
2018-12-24T17:22:52.553Z,100.00
2018-12-24T17:25:23.790Z,100.00
2018-12-24T17:27:53.758Z,100.00
2018-12-24T17:30:23.866Z,100.00
2018-12-24T17:32:55.354Z,100.00
2018-12-24T17:35:27.569Z,100.00
2018-12-24T17:37:57.070Z,100.00
2018-12-24T17:40:26.656Z,100.00
2018-12-24T17:42:56.237Z,100.00
2018-12-24T17:45:25.598Z,100.00
2018-12-24T17:47:55.469Z,100.00
2018-12-24T17:50:25.098Z,100.00
2018-12-24T17:52:56.171Z,100.00
2018-12-24T17:55:32.515Z,100.00
2018-12-24T17:58:03.809Z,100.00
2018-12-24T18:00:35.068Z,100.00
2018-12-24T18:03:04.779Z,100.00
2018-12-24T18:05:40.837Z,100.00
2018-12-24T18:08:10.753Z,100.00
2018-12-24T18:10:41.716Z,100.00
2018-12-24T18:13:11.880Z,100.00
2018-12-24T18:15:41.945Z,100.00
2018-12-24T18:18:12.443Z,100.00
2018-12-24T18:20:42.490Z,100.00
2018-12-24T18:23:13.343Z,100.00
2018-12-24T18:25:43.731Z,100.00
2018-12-24T18:28:13.087Z,100.00
2018-12-24T18:30:43.210Z,100.00
2018-12-24T18:33:12.914Z,100.00
2018-12-24T18:35:42.188Z,100.00
2018-12-24T18:38:11.677Z,100.00
2018-12-24T18:40:41.145Z,100.00
2018-12-24T18:43:11.211Z,100.00
2018-12-24T18:45:43.360Z,100.00
2018-12-24T18:48:14.531Z,100.00
2018-12-24T18:50:44.168Z,100.00
2018-12-24T18:53:14.121Z,100.00
2018-12-24T18:55:43.928Z,100.00
2018-12-24T18:58:13.970Z,100.00
2018-12-24T19:00:43.060Z,100.00
2018-12-24T19:03:12.703Z,100.00
2018-12-24T19:05:44.143Z,100.00
2018-12-24T19:08:13.831Z,100.00
2018-12-24T19:10:43.952Z,100.00
2018-12-24T19:13:13.486Z,100.00
2018-12-24T19:15:43.210Z,100.00
2018-12-24T19:18:13.034Z,100.00
2018-12-24T19:20:44.518Z,100.00
2018-12-24T19:23:15.047Z,100.00
2018-12-24T19:25:44.774Z,100.00
2018-12-24T19:28:14.310Z,100.00
2018-12-24T19:30:44.178Z,100.00
2018-12-24T19:33:13.703Z,100.00
2018-12-24T19:35:44.610Z,100.00
2018-12-24T19:38:15.703Z,100.00
2018-12-24T19:40:46.333Z,97.68
2018-12-24T19:43:16.406Z,94.77
2018-12-24T19:45:46.013Z,95.48
2018-12-24T19:48:16.491Z,96.30
2018-12-24T19:50:47.042Z,96.68
2018-12-24T19:53:16.778Z,97.01
2018-12-24T19:55:47.384Z,97.92
2018-12-24T19:58:17.037Z,94.68
2018-12-24T20:00:48.177Z,93.90
2018-12-24T20:03:19.246Z,93.83
2018-12-24T20:05:50.823Z,93.61
2018-12-24T20:08:20.490Z,93.52
2018-12-24T20:10:51.086Z,92.98
2018-12-24T20:13:21.185Z,96.12
2018-12-24T20:15:50.275Z,98.06
2018-12-24T20:18:21.640Z,98.24
2018-12-24T20:20:53.291Z,96.51
2018-12-24T20:23:23.882Z,95.01
2018-12-24T20:25:53.462Z,96.78
2018-12-24T20:28:24.921Z,98.12
2018-12-24T20:30:55.142Z,99.65
2018-12-24T20:33:25.442Z,97.78
2018-12-24T20:35:57.769Z,96.18
2018-12-24T20:38:27.402Z,96.79
2018-12-24T20:40:57.444Z,97.43
2018-12-24T20:43:27.210Z,95.63
2018-12-24T20:45:58.120Z,95.48
2018-12-24T20:48:27.997Z,95.60
2018-12-24T20:50:58.235Z,96.30
2018-12-24T20:53:28.438Z,99.00
2018-12-24T20:56:00.387Z,98.66
2018-12-24T20:58:30.700Z,96.37
2018-12-24T21:01:00.657Z,98.79
2018-12-24T21:03:31.992Z,94.42
2018-12-24T21:06:03.098Z,92.59
2018-12-24T21:08:34.558Z,91.57
2018-12-24T21:11:05.125Z,91.49
2018-12-24T21:13:34.797Z,95.06
2018-12-24T21:16:05.960Z,93.58
2018-12-24T21:18:35.832Z,91.85
2018-12-24T21:21:05.417Z,88.77
2018-12-24T21:23:35.243Z,91.43
2018-12-24T21:26:06.039Z,87.73
2018-12-24T21:28:39.689Z,89.79
2018-12-24T21:31:08.983Z,90.38
2018-12-24T21:33:38.320Z,87.25
2018-12-24T21:36:08.574Z,88.69
2018-12-24T21:38:37.779Z,90.47
2018-12-24T21:41:07.226Z,89.66
2018-12-24T21:43:36.830Z,89.07
2018-12-24T21:46:06.683Z,90.46
2018-12-24T21:48:35.813Z,87.74
2018-12-24T21:51:05.508Z,89.72
2018-12-24T21:53:34.927Z,88.14
2018-12-24T21:56:04.158Z,87.25
2018-12-24T21:58:34.236Z,88.72
2018-12-24T22:01:03.663Z,87.97
2018-12-24T22:03:33.077Z,90.34
2018-12-24T22:06:02.243Z,89.30
2018-12-24T22:08:32.090Z,90.44
2018-12-24T22:11:01.462Z,91.73
2018-12-24T22:13:31.094Z,91.33
2018-12-24T22:16:02.315Z,91.39
2018-12-24T22:18:32.286Z,93.19
2018-12-24T22:20:59.506Z,94.73
2018-12-24T22:23:28.732Z,94.35
2018-12-24T22:25:57.978Z,95.18
2018-12-24T22:28:27.429Z,91.77
2018-12-24T22:30:56.847Z,92.59
2018-12-24T22:33:27.078Z,92.49
2018-12-24T22:35:55.943Z,85.66
2018-12-24T22:38:25.896Z,88.26
2018-12-24T22:40:55.810Z,84.98
2018-12-24T22:43:25.010Z,84.53
2018-12-24T22:45:54.571Z,80.80
2018-12-24T22:48:23.949Z,78.09
2018-12-24T22:50:53.214Z,78.11
2018-12-24T22:53:22.909Z,75.96
2018-12-24T22:55:52.064Z,73.37
2018-12-24T22:58:22.173Z,72.56
2018-12-24T23:00:51.817Z,71.58
2018-12-24T23:03:21.239Z,70.64
2018-12-24T23:05:50.738Z,69.83
2018-12-24T23:08:20.065Z,69.71
2018-12-24T23:10:49.672Z,68.68
2018-12-24T23:13:19.024Z,69.23
2018-12-24T23:15:48.369Z,69.08
2018-12-24T23:18:17.833Z,69.10
2018-12-24T23:20:47.159Z,66.68
2018-12-24T23:23:17.237Z,66.40
2018-12-24T23:25:46.515Z,66.46
2018-12-24T23:28:15.590Z,64.88
2018-12-24T23:30:45.328Z,64.28
2018-12-24T23:33:14.842Z,64.14
2018-12-24T23:35:44.058Z,63.78
2018-12-24T23:38:13.268Z,64.52
2018-12-24T23:40:42.780Z,63.00
2018-12-24T23:43:12.090Z,63.96
2018-12-24T23:45:41.426Z,64.05
2018-12-24T23:48:10.639Z,65.46
2018-12-24T23:50:39.840Z,64.87
2018-12-24T23:53:09.600Z,64.23
2018-12-24T23:55:38.747Z,63.72
2018-12-24T23:58:08.010Z,64.52
